sensor_id;sensor_type;location;lat;lon;timestamp;pressure;altitude;pressure_sealevel;temperature;humidity
49297;BME280;35163;48.878;18.040;2023-09-19T00:00:21;97734.47;;;22.80;68.92
49297;BME280;35163;48.878;18.040;2023-09-19T00:02:55;97740.03;;;22.77;69.53
49297;BME280;35163;48.878;18.040;2023-09-19T00:05:33;97737.38;;;22.77;70.78
49297;BME280;35163;48.878;18.040;2023-09-19T00:08:02;97734.34;;;22.72;71.49
49297;BME280;35163;48.878;18.040;2023-09-19T00:10:33;97739.78;;;22.70;71.95
49297;BME280;35163;48.878;18.040;2023-09-19T00:13:03;97737.97;;;22.71;72.29
49297;BME280;35163;48.878;18.040;2023-09-19T00:15:40;97738.25;;;22.68;72.71
49297;BME280;35163;48.878;18.040;2023-09-19T00:18:07;97742.00;;;22.65;73.22
49297;BME280;35163;48.878;18.040;2023-09-19T00:20:36;97743.78;;;22.65;73.84
49297;BME280;35163;48.878;18.040;2023-09-19T00:23:04;97738.00;;;22.61;73.55
49297;BME280;35163;48.878;18.040;2023-09-19T00:25:31;97737.13;;;22.61;74.26
49297;BME280;35163;48.878;18.040;2023-09-19T00:28:05;97738.22;;;22.58;73.82
49297;BME280;35163;48.878;18.040;2023-09-19T00:30:35;97739.22;;;22.57;74.75
49297;BME280;35163;48.878;18.040;2023-09-19T00:33:05;97736.03;;;22.53;74.42
49297;BME280;35163;48.878;18.040;2023-09-19T00:35:37;97727.19;;;22.54;74.42
49297;BME280;35163;48.878;18.040;2023-09-19T00:38:04;97726.34;;;22.54;75.27
49297;BME280;35163;48.878;18.040;2023-09-19T00:40:33;97721.22;;;22.52;73.76
49297;BME280;35163;48.878;18.040;2023-09-19T00:43:00;97730.06;;;22.51;73.89
49297;BME280;35163;48.878;18.040;2023-09-19T00:45:27;97728.72;;;22.47;74.85
49297;BME280;35163;48.878;18.040;2023-09-19T00:47:55;97728.31;;;22.42;74.39
49297;BME280;35163;48.878;18.040;2023-09-19T00:50:26;97729.53;;;22.38;75.47
49297;BME280;35163;48.878;18.040;2023-09-19T00:52:55;97728.84;;;22.36;73.26
49297;BME280;35163;48.878;18.040;2023-09-19T00:55:25;97725.13;;;22.38;71.17
49297;BME280;35163;48.878;18.040;2023-09-19T00:57:52;97728.00;;;22.45;72.05
49297;BME280;35163;48.878;18.040;2023-09-19T01:00:19;97722.75;;;22.45;71.80
49297;BME280;35163;48.878;18.040;2023-09-19T01:02:47;97729.66;;;22.46;72.40
49297;BME280;35163;48.878;18.040;2023-09-19T01:05:14;97727.72;;;22.48;71.29
49297;BME280;35163;48.878;18.040;2023-09-19T01:07:42;97739.09;;;22.49;70.81
49297;BME280;35163;48.878;18.040;2023-09-19T01:10:16;97731.06;;;22.50;71.40
49297;BME280;35163;48.878;18.040;2023-09-19T01:12:45;97724.53;;;22.44;71.50
49297;BME280;35163;48.878;18.040;2023-09-19T01:15:37;97727.59;;;22.40;70.39
49297;BME280;35163;48.878;18.040;2023-09-19T01:21:21;97714.72;;;22.37;70.07
49297;BME280;35163;48.878;18.040;2023-09-19T01:24:03;97713.34;;;22.32;71.41
49297;BME280;35163;48.878;18.040;2023-09-19T01:29:33;97718.59;;;22.32;72.03
49297;BME280;35163;48.878;18.040;2023-09-19T01:32:03;97722.78;;;22.35;72.03
49297;BME280;35163;48.878;18.040;2023-09-19T01:35:03;97725.84;;;22.30;73.89
49297;BME280;35163;48.878;18.040;2023-09-19T01:37:30;97716.53;;;22.26;74.73
49297;BME280;35163;48.878;18.040;2023-09-19T01:40:04;97720.97;;;22.26;75.91
49297;BME280;35163;48.878;18.040;2023-09-19T01:42:58;97723.88;;;22.23;76.85
49297;BME280;35163;48.878;18.040;2023-09-19T01:47:55;97725.41;;;22.15;77.83
49297;BME280;35163;48.878;18.040;2023-09-19T01:51:00;97725.53;;;22.14;77.43
49297;BME280;35163;48.878;18.040;2023-09-19T01:53:50;97720.00;;;22.07;78.67
49297;BME280;35163;48.878;18.040;2023-09-19T01:56:28;97727.75;;;22.08;77.91
49297;BME280;35163;48.878;18.040;2023-09-19T01:59:04;97725.97;;;22.09;78.18
49297;BME280;35163;48.878;18.040;2023-09-19T02:01:33;97732.22;;;22.08;77.66
49297;BME280;35163;48.878;18.040;2023-09-19T02:04:02;97721.13;;;22.04;77.90
49297;BME280;35163;48.878;18.040;2023-09-19T02:06:29;97725.41;;;22.05;78.37
49297;BME280;35163;48.878;18.040;2023-09-19T02:08:56;97727.06;;;22.06;78.43
49297;BME280;35163;48.878;18.040;2023-09-19T02:11:22;97722.78;;;22.05;78.15
49297;BME280;35163;48.878;18.040;2023-09-19T02:13:50;97729.03;;;22.04;78.47
49297;BME280;35163;48.878;18.040;2023-09-19T02:16:21;97727.78;;;21.99;79.12
49297;BME280;35163;48.878;18.040;2023-09-19T02:18:49;97726.78;;;22.00;78.96
49297;BME280;35163;48.878;18.040;2023-09-19T02:21:18;97726.69;;;22.01;79.10
49297;BME280;35163;48.878;18.040;2023-09-19T02:23:45;97721.41;;;22.01;78.95
49297;BME280;35163;48.878;18.040;2023-09-19T02:26:14;97721.66;;;21.98;78.01
49297;BME280;35163;48.878;18.040;2023-09-19T02:28:40;97718.91;;;22.00;78.39
49297;BME280;35163;48.878;18.040;2023-09-19T02:31:07;97716.97;;;22.02;77.78
49297;BME280;35163;48.878;18.040;2023-09-19T02:33:34;97720.28;;;22.04;78.27
49297;BME280;35163;48.878;18.040;2023-09-19T02:36:01;97724.16;;;22.00;78.06
49297;BME280;35163;48.878;18.040;2023-09-19T02:38:30;97719.75;;;22.00;78.68
49297;BME280;35163;48.878;18.040;2023-09-19T02:40:57;97720.03;;;21.97;78.30
49297;BME280;35163;48.878;18.040;2023-09-19T02:43:24;97721.94;;;21.95;79.00
49297;BME280;35163;48.878;18.040;2023-09-19T02:45:51;97720.59;;;21.91;79.78
49297;BME280;35163;48.878;18.040;2023-09-19T02:48:21;97720.97;;;21.86;79.38
49297;BME280;35163;48.878;18.040;2023-09-19T02:50:51;97723.88;;;21.83;79.82
49297;BME280;35163;48.878;18.040;2023-09-19T02:53:18;97728.44;;;21.81;79.67
49297;BME280;35163;48.878;18.040;2023-09-19T02:55:46;97726.66;;;21.81;79.66
49297;BME280;35163;48.878;18.040;2023-09-19T02:58:13;97722.94;;;21.84;78.89
49297;BME280;35163;48.878;18.040;2023-09-19T03:00:42;97726.06;;;21.78;79.54
49297;BME280;35163;48.878;18.040;2023-09-19T03:03:09;97728.13;;;21.74;79.59
49297;BME280;35163;48.878;18.040;2023-09-19T03:05:36;97729.97;;;21.73;79.87
49297;BME280;35163;48.878;18.040;2023-09-19T03:08:05;97728.56;;;21.69;80.19
49297;BME280;35163;48.878;18.040;2023-09-19T03:10:32;97726.06;;;21.68;80.42
49297;BME280;35163;48.878;18.040;2023-09-19T03:12:59;97732.97;;;21.69;80.20
49297;BME280;35163;48.878;18.040;2023-09-19T03:15:26;97733.69;;;21.71;80.92
49297;BME280;35163;48.878;18.040;2023-09-19T03:17:53;97734.66;;;21.70;81.12
49297;BME280;35163;48.878;18.040;2023-09-19T03:20:20;97739.78;;;21.71;81.05
49297;BME280;35163;48.878;18.040;2023-09-19T03:22:48;97741.69;;;21.69;81.30
49297;BME280;35163;48.878;18.040;2023-09-19T03:25:15;97748.19;;;21.65;81.45
49297;BME280;35163;48.878;18.040;2023-09-19T03:27:44;97746.41;;;21.66;81.25
49297;BME280;35163;48.878;18.040;2023-09-19T03:30:11;97753.59;;;21.64;81.97
49297;BME280;35163;48.878;18.040;2023-09-19T03:32:47;97757.47;;;21.59;82.18
49297;BME280;35163;48.878;18.040;2023-09-19T03:35:17;97755.13;;;21.56;82.12
49297;BME280;35163;48.878;18.040;2023-09-19T03:37:44;97752.06;;;21.61;81.08
49297;BME280;35163;48.878;18.040;2023-09-19T03:40:15;97752.50;;;21.56;80.89
49297;BME280;35163;48.878;18.040;2023-09-19T03:42:42;97765.63;;;21.56;81.07
49297;BME280;35163;48.878;18.040;2023-09-19T03:45:09;97759.81;;;21.53;81.20
49297;BME280;35163;48.878;18.040;2023-09-19T03:47:40;97779.88;;;21.54;81.31
49297;BME280;35163;48.878;18.040;2023-09-19T03:50:07;97781.41;;;21.56;81.28
49297;BME280;35163;48.878;18.040;2023-09-19T03:52:34;97777.81;;;21.57;82.28
49297;BME280;35163;48.878;18.040;2023-09-19T03:55:01;97786.91;;;21.53;82.75
49297;BME280;35163;48.878;18.040;2023-09-19T03:57:31;97792.44;;;21.50;82.71
49297;BME280;35163;48.878;18.040;2023-09-19T03:59:58;97789.38;;;21.45;83.63
49297;BME280;35163;48.878;18.040;2023-09-19T04:02:25;97790.22;;;21.45;83.12
49297;BME280;35163;48.878;18.040;2023-09-19T04:04:52;97784.84;;;21.47;83.62
49297;BME280;35163;48.878;18.040;2023-09-19T04:07:19;97786.53;;;21.48;83.03
49297;BME280;35163;48.878;18.040;2023-09-19T04:09:49;97790.66;;;21.51;82.45
49297;BME280;35163;48.878;18.040;2023-09-19T04:12:16;97802.97;;;21.50;82.18
49297;BME280;35163;48.878;18.040;2023-09-19T04:14:45;97806.31;;;21.52;81.64
49297;BME280;35163;48.878;18.040;2023-09-19T04:17:12;97811.84;;;21.49;81.62
49297;BME280;35163;48.878;18.040;2023-09-19T04:19:40;97815.44;;;21.48;81.74
49297;BME280;35163;48.878;18.040;2023-09-19T04:22:08;97814.75;;;21.46;81.76
49297;BME280;35163;48.878;18.040;2023-09-19T04:24:35;97814.44;;;21.39;81.77
49297;BME280;35163;48.878;18.040;2023-09-19T04:27:02;97815.78;;;21.33;82.80
49297;BME280;35163;48.878;18.040;2023-09-19T04:29:29;97825.47;;;21.33;81.08
49297;BME280;35163;48.878;18.040;2023-09-19T04:31:56;97827.53;;;21.29;80.57
49297;BME280;35163;48.878;18.040;2023-09-19T04:34:26;97834.28;;;21.22;81.82
49297;BME280;35163;48.878;18.040;2023-09-19T04:36:54;97844.34;;;21.17;80.06
49297;BME280;35163;48.878;18.040;2023-09-19T04:39:23;97850.13;;;21.10;81.20
49297;BME280;35163;48.878;18.040;2023-09-19T04:41:52;97868.66;;;21.09;81.34
49297;BME280;35163;48.878;18.040;2023-09-19T04:44:19;97865.19;;;21.08;81.09
49297;BME280;35163;48.878;18.040;2023-09-19T04:46:46;97866.16;;;21.07;80.85
49297;BME280;35163;48.878;18.040;2023-09-19T04:49:13;97866.66;;;21.01;81.07
49297;BME280;35163;48.878;18.040;2023-09-19T04:51:40;97862.50;;;20.98;80.85
49297;BME280;35163;48.878;18.040;2023-09-19T04:54:07;97851.03;;;20.99;78.52
49297;BME280;35163;48.878;18.040;2023-09-19T04:56:34;97878.13;;;21.00;76.83
49297;BME280;35163;48.878;18.040;2023-09-19T04:59:00;97872.41;;;20.95;76.12
49297;BME280;35163;48.878;18.040;2023-09-19T05:01:27;97868.13;;;20.94;76.09
49297;BME280;35163;48.878;18.040;2023-09-19T05:03:54;97874.59;;;20.90;73.48
49297;BME280;35163;48.878;18.040;2023-09-19T05:06:21;97875.09;;;20.83;74.20
49297;BME280;35163;48.878;18.040;2023-09-19T05:08:49;97882.66;;;20.76;75.61
49297;BME280;35163;48.878;18.040;2023-09-19T05:11:19;97881.13;;;20.74;74.28
49297;BME280;35163;48.878;18.040;2023-09-19T05:13:49;97885.91;;;20.69;76.27
49297;BME280;35163;48.878;18.040;2023-09-19T05:16:16;97885.72;;;20.60;76.66
49297;BME280;35163;48.878;18.040;2023-09-19T05:18:43;97895.31;;;20.50;76.78
49297;BME280;35163;48.878;18.040;2023-09-19T05:21:10;97899.84;;;20.48;76.95
49297;BME280;35163;48.878;18.040;2023-09-19T05:23:37;97907.13;;;20.44;77.19
49297;BME280;35163;48.878;18.040;2023-09-19T05:26:05;97910.72;;;20.32;79.29
49297;BME280;35163;48.878;18.040;2023-09-19T05:28:31;97910.38;;;20.36;78.00
49297;BME280;35163;48.878;18.040;2023-09-19T05:31:01;97911.19;;;20.37;77.33
49297;BME280;35163;48.878;18.040;2023-09-19T05:33:31;97915.38;;;20.39;76.66
49297;BME280;35163;48.878;18.040;2023-09-19T05:35:58;97920.50;;;20.41;75.89
49297;BME280;35163;48.878;18.040;2023-09-19T05:38:25;97922.03;;;20.44;76.00
49297;BME280;35163;48.878;18.040;2023-09-19T05:40:53;97930.63;;;20.46;74.92
49297;BME280;35163;48.878;18.040;2023-09-19T05:43:20;97935.88;;;20.46;74.64
49297;BME280;35163;48.878;18.040;2023-09-19T05:45:47;97932.78;;;20.40;75.06
49297;BME280;35163;48.878;18.040;2023-09-19T05:48:15;97939.94;;;20.38;75.55
49297;BME280;35163;48.878;18.040;2023-09-19T05:50:43;97931.38;;;20.36;75.44
49297;BME280;35163;48.878;18.040;2023-09-19T05:53:15;97937.09;;;20.30;76.58
49297;BME280;35163;48.878;18.040;2023-09-19T05:55:42;97939.72;;;20.30;76.83
49297;BME280;35163;48.878;18.040;2023-09-19T05:58:10;97955.47;;;20.30;76.85
49297;BME280;35163;48.878;18.040;2023-09-19T06:00:37;97953.69;;;20.31;75.99
49297;BME280;35163;48.878;18.040;2023-09-19T06:03:09;97948.44;;;20.31;76.67
49297;BME280;35163;48.878;18.040;2023-09-19T06:05:36;97951.19;;;20.29;76.01
49297;BME280;35163;48.878;18.040;2023-09-19T06:08:03;97947.59;;;20.30;76.10
49297;BME280;35163;48.878;18.040;2023-09-19T06:10:34;97949.50;;;20.28;77.06
49297;BME280;35163;48.878;18.040;2023-09-19T06:13:02;97959.31;;;20.26;77.98
49297;BME280;35163;48.878;18.040;2023-09-19T06:15:31;97960.75;;;20.19;78.94
49297;BME280;35163;48.878;18.040;2023-09-19T06:17:59;97977.34;;;20.19;79.43
49297;BME280;35163;48.878;18.040;2023-09-19T06:20:28;97976.97;;;20.12;80.11
49297;BME280;35163;48.878;18.040;2023-09-19T06:22:56;97975.66;;;20.07;82.08
49297;BME280;35163;48.878;18.040;2023-09-19T06:25:26;97986.28;;;20.05;81.97
49297;BME280;35163;48.878;18.040;2023-09-19T06:27:54;97976.94;;;20.01;81.26
49297;BME280;35163;48.878;18.040;2023-09-19T06:30:22;97981.47;;;19.99;82.19
49297;BME280;35163;48.878;18.040;2023-09-19T06:32:57;97979.22;;;19.94;82.57
49297;BME280;35163;48.878;18.040;2023-09-19T06:35:25;97989.34;;;19.87;83.34
49297;BME280;35163;48.878;18.040;2023-09-19T06:37:53;97990.19;;;19.88;83.65
49297;BME280;35163;48.878;18.040;2023-09-19T06:40:20;97992.09;;;19.86;84.25
49297;BME280;35163;48.878;18.040;2023-09-19T06:42:50;98002.34;;;19.89;84.04
49297;BME280;35163;48.878;18.040;2023-09-19T06:45:17;98005.44;;;19.94;84.55
49297;BME280;35163;48.878;18.040;2023-09-19T06:47:49;98001.28;;;19.91;85.27
49297;BME280;35163;48.878;18.040;2023-09-19T06:50:21;98011.28;;;19.98;85.44
49297;BME280;35163;48.878;18.040;2023-09-19T06:52:51;98014.31;;;20.05;84.36
49297;BME280;35163;48.878;18.040;2023-09-19T06:55:20;98014.41;;;20.03;84.22
49297;BME280;35163;48.878;18.040;2023-09-19T06:57:48;98014.19;;;20.06;83.96
49297;BME280;35163;48.878;18.040;2023-09-19T07:00:15;98017.53;;;20.08;84.33
49297;BME280;35163;48.878;18.040;2023-09-19T07:02:53;98023.75;;;20.07;85.36
49297;BME280;35163;48.878;18.040;2023-09-19T07:05:21;98018.19;;;19.99;85.81
49297;BME280;35163;48.878;18.040;2023-09-19T07:07:48;98022.88;;;19.95;85.58
49297;BME280;35163;48.878;18.040;2023-09-19T07:10:15;98037.75;;;19.95;86.16
49297;BME280;35163;48.878;18.040;2023-09-19T07:12:42;98032.88;;;20.01;86.58
49297;BME280;35163;48.878;18.040;2023-09-19T07:15:09;98035.63;;;20.00;86.36
49297;BME280;35163;48.878;18.040;2023-09-19T07:17:36;98039.44;;;19.96;85.82
49297;BME280;35163;48.878;18.040;2023-09-19T07:20:06;98028.13;;;19.95;86.95
49297;BME280;35163;48.878;18.040;2023-09-19T07:22:34;98035.88;;;19.97;86.69
49297;BME280;35163;48.878;18.040;2023-09-19T07:25:03;98033.00;;;20.00;86.08
49297;BME280;35163;48.878;18.040;2023-09-19T07:27:30;98030.75;;;19.95;86.33
49297;BME280;35163;48.878;18.040;2023-09-19T07:29:57;98026.44;;;19.94;85.86
49297;BME280;35163;48.878;18.040;2023-09-19T07:32:25;98028.13;;;19.95;86.29
49297;BME280;35163;48.878;18.040;2023-09-19T07:34:52;98031.56;;;19.96;86.13
49297;BME280;35163;48.878;18.040;2023-09-19T07:37:19;98032.53;;;19.95;86.81
49297;BME280;35163;48.878;18.040;2023-09-19T07:39:47;98036.06;;;19.94;87.24
49297;BME280;35163;48.878;18.040;2023-09-19T07:42:14;98033.00;;;20.00;85.64
49297;BME280;35163;48.878;18.040;2023-09-19T07:44:44;98038.97;;;20.02;86.68
49297;BME280;35163;48.878;18.040;2023-09-19T07:47:14;98037.16;;;20.02;84.26
49297;BME280;35163;48.878;18.040;2023-09-19T07:49:41;98026.91;;;19.99;85.51
49297;BME280;35163;48.878;18.040;2023-09-19T07:52:11;98032.88;;;20.01;86.23
49297;BME280;35163;48.878;18.040;2023-09-19T07:54:38;98030.38;;;20.00;87.66
49297;BME280;35163;48.878;18.040;2023-09-19T07:57:07;98040.03;;;19.99;87.94
49297;BME280;35163;48.878;18.040;2023-09-19T07:59:37;98039.19;;;19.99;87.62
49297;BME280;35163;48.878;18.040;2023-09-19T08:02:05;98047.66;;;19.91;89.49
49297;BME280;35163;48.878;18.040;2023-09-19T08:04:32;98051.81;;;19.94;89.27
49297;BME280;35163;48.878;18.040;2023-09-19T08:07:00;98053.28;;;19.98;88.74
49297;BME280;35163;48.878;18.040;2023-09-19T08:09:29;98053.66;;;20.05;88.19
49297;BME280;35163;48.878;18.040;2023-09-19T08:11:59;98062.00;;;20.10;86.44
49297;BME280;35163;48.878;18.040;2023-09-19T08:14:29;98053.78;;;20.14;84.96
49297;BME280;35163;48.878;18.040;2023-09-19T08:16:58;98060.72;;;20.15;84.56
49297;BME280;35163;48.878;18.040;2023-09-19T08:19:26;98054.38;;;20.18;84.15
49297;BME280;35163;48.878;18.040;2023-09-19T08:21:58;98068.22;;;20.20;84.10
49297;BME280;35163;48.878;18.040;2023-09-19T08:24:26;98081.00;;;20.25;84.82
49297;BME280;35163;48.878;18.040;2023-09-19T08:26:55;98081.72;;;20.27;85.13
49297;BME280;35163;48.878;18.040;2023-09-19T08:29:23;98071.22;;;20.27;85.88
49297;BME280;35163;48.878;18.040;2023-09-19T08:31:55;98076.22;;;20.30;86.00
49297;BME280;35163;48.878;18.040;2023-09-19T08:34:23;98075.50;;;20.28;86.79
49297;BME280;35163;48.878;18.040;2023-09-19T08:36:51;98080.16;;;20.24;87.56
49297;BME280;35163;48.878;18.040;2023-09-19T08:39:20;98084.56;;;20.24;89.41
49297;BME280;35163;48.878;18.040;2023-09-19T08:41:47;98096.00;;;20.23;89.58
49297;BME280;35163;48.878;18.040;2023-09-19T08:44:14;98088.97;;;20.23;88.35
49297;BME280;35163;48.878;18.040;2023-09-19T08:46:41;98093.38;;;20.23;88.44
49297;BME280;35163;48.878;18.040;2023-09-19T08:49:18;98095.06;;;20.24;87.48
49297;BME280;35163;48.878;18.040;2023-09-19T08:51:54;98098.91;;;20.31;85.21
49297;BME280;35163;48.878;18.040;2023-09-19T08:54:33;98097.69;;;20.35;86.74
49297;BME280;35163;48.878;18.040;2023-09-19T08:57:06;98105.34;;;20.38;87.25
49297;BME280;35163;48.878;18.040;2023-09-19T08:59:38;98092.94;;;20.40;84.75
49297;BME280;35163;48.878;18.040;2023-09-19T09:02:14;98104.16;;;20.43;87.28
49297;BME280;35163;48.878;18.040;2023-09-19T09:04:42;98109.03;;;20.47;87.67
49297;BME280;35163;48.878;18.040;2023-09-19T09:07:11;98108.91;;;20.49;90.46
49297;BME280;35163;48.878;18.040;2023-09-19T09:09:40;98122.53;;;20.54;89.27
49297;BME280;35163;48.878;18.040;2023-09-19T09:12:14;98122.28;;;20.57;89.16
49297;BME280;35163;48.878;18.040;2023-09-19T09:14:45;98122.63;;;20.64;89.82
49297;BME280;35163;48.878;18.040;2023-09-19T09:17:16;98123.00;;;20.71;91.61
49297;BME280;35163;48.878;18.040;2023-09-19T09:19:47;98120.84;;;20.76;92.10
49297;BME280;35163;48.878;18.040;2023-09-19T09:22:14;98123.94;;;20.81;90.83
49297;BME280;35163;48.878;18.040;2023-09-19T09:24:57;98126.44;;;20.83;89.58
49297;BME280;35163;48.878;18.040;2023-09-19T09:27:25;98123.47;;;20.87;87.85
49297;BME280;35163;48.878;18.040;2023-09-19T09:29:52;98126.81;;;20.90;87.65
49297;BME280;35163;48.878;18.040;2023-09-19T09:34:52;98133.00;;;21.00;88.21
49297;BME280;35163;48.878;18.040;2023-09-19T09:37:21;98132.53;;;21.06;85.43
49297;BME280;35163;48.878;18.040;2023-09-19T09:39:50;98126.78;;;21.12;83.04
49297;BME280;35163;48.878;18.040;2023-09-19T09:42:33;98132.97;;;21.23;84.17
49297;BME280;35163;48.878;18.040;2023-09-19T09:45:18;98136.78;;;21.30;84.36
49297;BME280;35163;48.878;18.040;2023-09-19T09:47:48;98146.09;;;21.34;83.84
49297;BME280;35163;48.878;18.040;2023-09-19T09:50:29;98144.63;;;21.42;82.08
49297;BME280;35163;48.878;18.040;2023-09-19T09:53:03;98145.34;;;21.44;80.58
49297;BME280;35163;48.878;18.040;2023-09-19T09:58:27;98147.22;;;21.53;82.37
49297;BME280;35163;48.878;18.040;2023-09-19T10:00:57;98146.84;;;21.58;82.20
49297;BME280;35163;48.878;18.040;2023-09-19T10:03:38;98154.22;;;21.64;81.60
49297;BME280;35163;48.878;18.040;2023-09-19T10:06:15;98161.75;;;21.69;79.65
49297;BME280;35163;48.878;18.040;2023-09-19T10:09:04;98161.75;;;21.80;80.77
49297;BME280;35163;48.878;18.040;2023-09-19T10:11:41;98160.25;;;21.88;79.55
49297;BME280;35163;48.878;18.040;2023-09-19T10:14:17;98159.06;;;21.92;76.22
49297;BME280;35163;48.878;18.040;2023-09-19T10:16:53;98164.06;;;21.95;78.60
49297;BME280;35163;48.878;18.040;2023-09-19T10:19:38;98163.09;;;21.96;76.96
49297;BME280;35163;48.878;18.040;2023-09-19T10:22:14;98157.41;;;21.91;75.90
49297;BME280;35163;48.878;18.040;2023-09-19T10:24:48;98161.56;;;21.93;77.74
49297;BME280;35163;48.878;18.040;2023-09-19T10:27:30;98162.66;;;21.91;78.09
49297;BME280;35163;48.878;18.040;2023-09-19T10:30:06;98163.59;;;21.90;77.08
49297;BME280;35163;48.878;18.040;2023-09-19T10:32:35;98159.06;;;21.92;78.15
49297;BME280;35163;48.878;18.040;2023-09-19T10:35:04;98160.47;;;21.96;77.69
49297;BME280;35163;48.878;18.040;2023-09-19T10:37:32;98163.78;;;21.98;77.73
49297;BME280;35163;48.878;18.040;2023-09-19T10:40:00;98164.63;;;21.99;75.98
49297;BME280;35163;48.878;18.040;2023-09-19T10:42:30;98171.31;;;22.03;76.23
49297;BME280;35163;48.878;18.040;2023-09-19T10:45:00;98168.31;;;22.07;77.11
49297;BME280;35163;48.878;18.040;2023-09-19T10:47:29;98167.06;;;22.12;76.37
49297;BME280;35163;48.878;18.040;2023-09-19T10:49:57;98163.34;;;22.14;77.20
49297;BME280;35163;48.878;18.040;2023-09-19T10:52:26;98168.34;;;22.17;76.65
49297;BME280;35163;48.878;18.040;2023-09-19T10:54:55;98173.38;;;22.20;77.00
49297;BME280;35163;48.878;18.040;2023-09-19T10:57:25;98166.75;;;22.26;76.13
49297;BME280;35163;48.878;18.040;2023-09-19T11:00:07;98161.22;;;22.29;74.00
49297;BME280;35163;48.878;18.040;2023-09-19T11:05:36;98155.78;;;22.42;69.97
49297;BME280;35163;48.878;18.040;2023-09-19T11:08:08;98155.81;;;22.52;70.47
49297;BME280;35163;48.878;18.040;2023-09-19T11:10:48;98148.94;;;22.61;71.35
49297;BME280;35163;48.878;18.040;2023-09-19T11:26:41;98166.00;;;22.98;69.31
49297;BME280;35163;48.878;18.040;2023-09-19T11:29:40;98169.19;;;23.02;70.02
49297;BME280;35163;48.878;18.040;2023-09-19T11:32:08;98164.63;;;23.04;68.37
49297;BME280;35163;48.878;18.040;2023-09-19T11:40:06;98168.56;;;23.20;68.91
49297;BME280;35163;48.878;18.040;2023-09-19T11:42:46;98168.28;;;23.23;68.07
49297;BME280;35163;48.878;18.040;2023-09-19T11:48:24;98172.56;;;23.24;67.99
49297;BME280;35163;48.878;18.040;2023-09-19T11:50:54;98173.28;;;23.26;67.02
49297;BME280;35163;48.878;18.040;2023-09-19T11:53:22;98175.19;;;23.24;66.62
49297;BME280;35163;48.878;18.040;2023-09-19T11:55:49;98179.78;;;23.22;66.95
49297;BME280;35163;48.878;18.040;2023-09-19T11:58:17;98188.09;;;23.17;67.37
49297;BME280;35163;48.878;18.040;2023-09-19T12:00:54;98181.69;;;23.10;69.15
49297;BME280;35163;48.878;18.040;2023-09-19T12:03:21;98187.22;;;23.06;69.12
49297;BME280;35163;48.878;18.040;2023-09-19T12:05:49;98192.50;;;23.06;70.05
49297;BME280;35163;48.878;18.040;2023-09-19T12:08:16;98185.56;;;23.05;70.56
49297;BME280;35163;48.878;18.040;2023-09-19T12:10:50;98184.59;;;23.06;69.87
49297;BME280;35163;48.878;18.040;2023-09-19T12:13:21;98188.34;;;23.04;70.17
49297;BME280;35163;48.878;18.040;2023-09-19T12:15:50;98187.66;;;23.02;70.24
49297;BME280;35163;48.878;18.040;2023-09-19T12:18:29;98190.41;;;23.00;71.42
49297;BME280;35163;48.878;18.040;2023-09-19T12:20:57;98187.06;;;22.98;71.30
49297;BME280;35163;48.878;18.040;2023-09-19T12:23:31;98187.78;;;23.00;72.88
49297;BME280;35163;48.878;18.040;2023-09-19T12:25:58;98190.84;;;23.05;73.49
49297;BME280;35163;48.878;18.040;2023-09-19T12:28:27;98189.59;;;23.10;73.70
49297;BME280;35163;48.878;18.040;2023-09-19T12:31:06;98193.66;;;23.14;73.60
49297;BME280;35163;48.878;18.040;2023-09-19T12:33:34;98204.63;;;23.19;73.03
49297;BME280;35163;48.878;18.040;2023-09-19T12:36:22;98193.09;;;23.20;73.39
49297;BME280;35163;48.878;18.040;2023-09-19T12:38:58;98195.72;;;23.20;73.33
49297;BME280;35163;48.878;18.040;2023-09-19T12:41:26;98194.66;;;23.23;71.12
49297;BME280;35163;48.878;18.040;2023-09-19T12:43:53;98196.72;;;23.19;71.54
49297;BME280;35163;48.878;18.040;2023-09-19T12:46:21;98194.06;;;23.19;70.28
49297;BME280;35163;48.878;18.040;2023-09-19T12:49:18;98195.72;;;23.20;71.20
49297;BME280;35163;48.878;18.040;2023-09-19T12:51:46;98194.34;;;23.16;72.58
49297;BME280;35163;48.878;18.040;2023-09-19T12:54:13;98196.84;;;23.17;72.82
49297;BME280;35163;48.878;18.040;2023-09-19T12:56:43;98194.06;;;23.19;73.09
49297;BME280;35163;48.878;18.040;2023-09-19T12:59:15;98189.66;;;23.20;71.61
49297;BME280;35163;48.878;18.040;2023-09-19T13:01:42;98192.97;;;23.22;71.22
49297;BME280;35163;48.878;18.040;2023-09-19T13:04:14;98199.06;;;23.22;70.52
49297;BME280;35163;48.878;18.040;2023-09-19T13:06:47;98197.41;;;23.21;70.07
49297;BME280;35163;48.878;18.040;2023-09-19T13:09:17;98193.81;;;23.22;70.03
49297;BME280;35163;48.878;18.040;2023-09-19T13:11:44;98200.72;;;23.23;68.02
49297;BME280;35163;48.878;18.040;2023-09-19T13:14:19;98195.59;;;23.22;68.63
49297;BME280;35163;48.878;18.040;2023-09-19T13:25:21;98203.78;;;23.18;66.72
49297;BME280;35163;48.878;18.040;2023-09-19T13:27:50;98198.66;;;23.17;66.78
49297;BME280;35163;48.878;18.040;2023-09-19T13:30:20;98199.63;;;23.16;67.75
49297;BME280;35163;48.878;18.040;2023-09-19T13:32:47;98198.06;;;23.13;67.20
49297;BME280;35163;48.878;18.040;2023-09-19T13:35:15;98216.22;;;23.06;67.52
49297;BME280;35163;48.878;18.040;2023-09-19T13:37:42;98219.28;;;23.02;68.63
49297;BME280;35163;48.878;18.040;2023-09-19T13:40:11;98216.78;;;23.00;67.42
49297;BME280;35163;48.878;18.040;2023-09-19T13:42:38;98216.78;;;23.00;67.97
49297;BME280;35163;48.878;18.040;2023-09-19T13:45:06;98224.25;;;22.95;67.26
49297;BME280;35163;48.878;18.040;2023-09-19T13:47:33;98217.84;;;22.88;66.73
49297;BME280;35163;48.878;18.040;2023-09-19T13:50:02;98221.94;;;22.80;67.60
49297;BME280;35163;48.878;18.040;2023-09-19T13:52:31;98220.84;;;22.73;68.48